Bettina K — PBEW — position and weather

sailwx.info

Track history (hours):
 
Tides and Currents Weather Stations Pressure Air Temp Water Temp Dewpoint Dewpoint Depression Visibility Wind Speed Wind Dir Waves Ship Positions

Bettina K

Last reported at 2016-Aug-24 17:32 UTC. Time now 2016-Aug-25 02:48 UTC.
Position N 55°40' E 011°06'.

Length 88 m; draft 5 m.

Type: Cargo ship. MMSI: 244730469.

Date/timePositionNaut miles runAvg speedWind from/ knotsBaromVisibWave heightAir tempDewpointWater temp
2016-Aug-24 17:32N 55°40' E 011°06'0 0.0
2016-Aug-24 04:19N 55°40' E 011°06'5 4.3
2016-Aug-24 03:07N 55°42' E 010°57'5 5.0
2016-Aug-24 02:06N 55°40' E 010°49'19 4.9
2016-Aug-23 22:19N 55°23' E 011°02'11 6.0
2016-Aug-23 20:30N 55°12' E 011°06'6 6.6
2016-Aug-23 19:34N 55°07' E 011°03'6 6.1
2016-Aug-23 18:34N 55°00' E 011°02'5 5.0
2016-Aug-23 17:33N 54°56' E 010°57'5 5.3
2016-Aug-23 16:33N 54°51' E 010°53'5 5.5
2016-Aug-23 15:33N 54°46' E 010°53'5 5.3
2016-Aug-23 14:33N 54°41' E 010°51'5 5.3
2016-Aug-23 13:33N 54°37' E 010°44'6 5.5
2016-Aug-23 12:34N 54°34' E 010°36'7 5.8
2016-Aug-23 11:18N 54°31' E 010°25'5 6.1
2016-Aug-23 10:33N 54°29' E 010°18'9 8.9
2016-Aug-23 09:34N 54°22' E 010°09'3 2.6
2016-Aug-23 08:34N 54°22' E 010°04'8 7.4
2016-Aug-23 07:30N 54°22' E 009°51'25 7.7
2016-Aug-23 04:17N 54°05' E 009°19'6 7.8
2016-Aug-23 03:33N 53°60' E 009°18'8 8.0
2016-Aug-23 02:33N 53°54' E 009°09'2 2.0
2016-Aug-23 01:33N 53°53' E 009°06'1211.6
2016-Aug-23 00:33N 53°51' E 008°46'1211.8
2016-Aug-22 23:33N 53°58' E 008°31'1211.7
2016-Aug-22 22:33N 53°60' E 008°11'9 9.2
2016-Aug-22 21:34N 53°57' E 007°56'9 8.7
2016-Aug-22 20:33N 53°55' E 007°42'9 8.7
2016-Aug-22 19:33N 53°53' E 007°28'8 8.4
2016-Aug-22 18:33N 53°52' E 007°14'8 8.3
2016-Aug-22 17:33N 53°50' E 007°00'8 7.6
2016-Aug-22 16:33N 53°48' E 006°48'8 7.6
2016-Aug-22 15:33N 53°46' E 006°35'8 7.8
2016-Aug-22 14:33N 53°44' E 006°22'8 8.3
2016-Aug-22 13:33N 53°42' E 006°09'9 8.7
2016-Aug-22 12:34N 53°39' E 005°55'9 9.2
2016-Aug-22 11:34N 53°36' E 005°41'10 9.8
2016-Aug-22 10:33N 53°33' E 005°25'1010.2
2016-Aug-22 09:33N 53°30' E 005°08'3110.3
2016-Aug-22 06:31N 53°09' E 004°30'2410.9
2016-Aug-22 04:18N 52°48' E 004°09'78 8.9
2016-Aug-21 19:32N 51°50' E 002°43'1110.4
2016-Aug-21 18:27N 51°42' E 002°31'1010.9
2016-Aug-21 17:34N 51°34' E 002°22'1211.7
2016-Aug-21 16:34N 51°25' E 002°10'1111.4
2016-Aug-21 15:33N 51°14' E 002°03'1312.6
2016-Aug-21 14:33N 51°06' E 001°48'280 9.3
2016-Aug-20 08:33N 48°56' W 004°38'9 9.0
2016-Aug-20 07:33N 48°50' W 004°49'10 9.8
2016-Aug-20 06:33N 48°44' W 005°01'1111.1
2016-Aug-20 05:33N 48°38' W 005°14'1110.9
2016-Aug-20 04:33N 48°29' W 005°24'192 8.7
2016-Aug-19 06:26N 45°25' W 004°05'19 9.9
2016-Aug-19 04:32N 45°08' W 003°55'1010.0
2016-Aug-19 03:33N 44°58' W 003°51'  
2016-Aug-15 04:34N 43°49' W 002°13'9 8.7
2016-Aug-15 03:28N 43°57' W 002°20'  
Track history (hours):
 
Tides and Currents Weather Stations Pressure Air Temp Water Temp Dewpoint Dewpoint Depression Visibility Wind Speed Wind Dir Waves Ship Positions

Bettina K

Last reported at 2016-Aug-24 17:32 UTC. Time now 2016-Aug-25 02:48 UTC.
Position N 55°40' E 011°06'.

Length 88 m; draft 5 m.

Type: Cargo ship. MMSI: 244730469.

Date/timePositionNaut miles runAvg speedWind from/ knotsBaromVisibWave heightAir tempDewpointWater temp
2016-Aug-24 17:32N 55°40' E 011°06'0 0.0
2016-Aug-24 04:19N 55°40' E 011°06'5 4.3
2016-Aug-24 03:07N 55°42' E 010°57'5 5.0
2016-Aug-24 02:06N 55°40' E 010°49'19 4.9
2016-Aug-23 22:19N 55°23' E 011°02'11 6.0
2016-Aug-23 20:30N 55°12' E 011°06'6 6.6
2016-Aug-23 19:34N 55°07' E 011°03'6 6.1
2016-Aug-23 18:34N 55°00' E 011°02'5 5.0
2016-Aug-23 17:33N 54°56' E 010°57'5 5.3
2016-Aug-23 16:33N 54°51' E 010°53'5 5.5
2016-Aug-23 15:33N 54°46' E 010°53'5 5.3
2016-Aug-23 14:33N 54°41' E 010°51'5 5.3
2016-Aug-23 13:33N 54°37' E 010°44'6 5.5
2016-Aug-23 12:34N 54°34' E 010°36'7 5.8
2016-Aug-23 11:18N 54°31' E 010°25'5 6.1
2016-Aug-23 10:33N 54°29' E 010°18'9 8.9
2016-Aug-23 09:34N 54°22' E 010°09'3 2.6
2016-Aug-23 08:34N 54°22' E 010°04'8 7.4
2016-Aug-23 07:30N 54°22' E 009°51'25 7.7
2016-Aug-23 04:17N 54°05' E 009°19'6 7.8
2016-Aug-23 03:33N 53°60' E 009°18'8 8.0
2016-Aug-23 02:33N 53°54' E 009°09'2 2.0
2016-Aug-23 01:33N 53°53' E 009°06'1211.6
2016-Aug-23 00:33N 53°51' E 008°46'1211.8
2016-Aug-22 23:33N 53°58' E 008°31'1211.7
2016-Aug-22 22:33N 53°60' E 008°11'9 9.2
2016-Aug-22 21:34N 53°57' E 007°56'9 8.7
2016-Aug-22 20:33N 53°55' E 007°42'9 8.7
2016-Aug-22 19:33N 53°53' E 007°28'8 8.4
2016-Aug-22 18:33N 53°52' E 007°14'8 8.3
2016-Aug-22 17:33N 53°50' E 007°00'8 7.6
2016-Aug-22 16:33N 53°48' E 006°48'8 7.6
2016-Aug-22 15:33N 53°46' E 006°35'8 7.8
2016-Aug-22 14:33N 53°44' E 006°22'8 8.3
2016-Aug-22 13:33N 53°42' E 006°09'9 8.7
2016-Aug-22 12:34N 53°39' E 005°55'9 9.2
2016-Aug-22 11:34N 53°36' E 005°41'10 9.8
2016-Aug-22 10:33N 53°33' E 005°25'1010.2
2016-Aug-22 09:33N 53°30' E 005°08'3110.3
2016-Aug-22 06:31N 53°09' E 004°30'2410.9
2016-Aug-22 04:18N 52°48' E 004°09'78 8.9
2016-Aug-21 19:32N 51°50' E 002°43'1110.4
2016-Aug-21 18:27N 51°42' E 002°31'1010.9
2016-Aug-21 17:34N 51°34' E 002°22'1211.7
2016-Aug-21 16:34N 51°25' E 002°10'1111.4
2016-Aug-21 15:33N 51°14' E 002°03'1312.6
2016-Aug-21 14:33N 51°06' E 001°48'280 9.3
2016-Aug-20 08:33N 48°56' W 004°38'9 9.0
2016-Aug-20 07:33N 48°50' W 004°49'10 9.8
2016-Aug-20 06:33N 48°44' W 005°01'1111.1
2016-Aug-20 05:33N 48°38' W 005°14'1110.9
2016-Aug-20 04:33N 48°29' W 005°24'192 8.7
2016-Aug-19 06:26N 45°25' W 004°05'19 9.9
2016-Aug-19 04:32N 45°08' W 003°55'1010.0
2016-Aug-19 03:33N 44°58' W 003°51'  
2016-Aug-15 04:34N 43°49' W 002°13'9 8.7
2016-Aug-15 03:28N 43°57' W 002°20'  

Dump ship's entire track history